createdAt,value
2022-10-26T00:01:14.448Z,11.40
2022-10-26T00:03:44.205Z,11.30
2022-10-26T00:06:17.984Z,11.30
2022-10-26T00:08:45.892Z,11.30
2022-10-26T00:11:13.880Z,11.20
2022-10-26T00:13:41.962Z,11.30
2022-10-26T00:16:27.460Z,11.20
2022-10-26T00:18:54.586Z,11.20
2022-10-26T00:21:21.504Z,11.20
2022-10-26T00:23:48.410Z,11.10
2022-10-26T00:26:15.412Z,11.10
2022-10-26T00:28:42.310Z,11.10
2022-10-26T00:31:16.596Z,11.10
2022-10-26T00:33:43.893Z,11.10
2022-10-26T00:36:13.924Z,11.00
2022-10-26T00:38:45.928Z,11.10
2022-10-26T00:41:16.402Z,11.10
2022-10-26T00:43:43.440Z,11.10
2022-10-26T00:46:18.377Z,11.10
2022-10-26T00:48:51.168Z,11.10
2022-10-26T00:51:27.335Z,11.10
2022-10-26T00:53:56.010Z,11.10
2022-10-26T00:56:24.038Z,11.10
2022-10-26T00:58:52.064Z,11.10
2022-10-26T01:01:19.013Z,11.10
2022-10-26T01:03:47.215Z,11.20
2022-10-26T01:06:15.756Z,11.20
2022-10-26T01:08:44.134Z,11.20
2022-10-26T01:11:12.386Z,11.20
2022-10-26T01:13:41.944Z,11.30
2022-10-26T01:16:30.323Z,11.30
2022-10-26T01:19:30.985Z,11.30
2022-10-26T01:22:14.919Z,11.40
2022-10-26T01:25:12.864Z,11.30
2022-10-26T01:27:48.203Z,11.30
2022-10-26T01:30:40.105Z,11.30
2022-10-26T01:33:37.801Z,11.30
2022-10-26T01:36:26.531Z,11.40
2022-10-26T01:39:21.817Z,11.40
2022-10-26T01:41:55.045Z,11.40
2022-10-26T01:44:44.720Z,11.40
2022-10-26T01:47:16.308Z,11.40
2022-10-26T01:49:53.645Z,11.40
2022-10-26T01:52:21.552Z,11.50
2022-10-26T01:54:48.589Z,11.50
2022-10-26T01:57:20.144Z,11.50
2022-10-26T02:00:10.970Z,11.50
2022-10-26T02:03:01.388Z,11.60
2022-10-26T02:05:59.921Z,11.60
2022-10-26T02:08:44.253Z,11.70
2022-10-26T02:11:40.889Z,11.70
2022-10-26T02:14:54.337Z,11.70
2022-10-26T02:17:36.397Z,11.70
2022-10-26T02:20:08.993Z,11.80
2022-10-26T02:22:41.498Z,11.80
2022-10-26T02:25:16.063Z,11.80
2022-10-26T02:27:52.546Z,11.70
2022-10-26T02:30:20.113Z,11.80
2022-10-26T02:32:53.337Z,11.80
2022-10-26T02:35:27.943Z,11.80
2022-10-26T02:37:59.696Z,11.80
2022-10-26T02:40:29.771Z,11.90
2022-10-26T02:43:04.472Z,11.90
2022-10-26T02:45:41.135Z,11.90
2022-10-26T02:48:08.160Z,11.90
2022-10-26T02:51:11.525Z,11.90
2022-10-26T02:54:01.808Z,11.90
2022-10-26T02:56:39.260Z,12.10
2022-10-26T02:59:11.237Z,12.00
2022-10-26T03:01:39.172Z,12.00
2022-10-26T03:04:06.300Z,12.10
2022-10-26T03:06:33.278Z,12.10
2022-10-26T03:09:00.218Z,12.10
2022-10-26T03:11:27.152Z,12.10
2022-10-26T03:13:54.148Z,12.20
2022-10-26T03:16:21.328Z,12.20
2022-10-26T03:18:48.218Z,12.20
2022-10-26T03:21:15.112Z,12.20
2022-10-26T03:23:42.056Z,12.30
2022-10-26T03:26:08.984Z,12.40
2022-10-26T03:28:36.895Z,12.40
2022-10-26T03:31:03.784Z,12.30
2022-10-26T03:33:30.721Z,12.30
2022-10-26T03:35:57.752Z,12.30
2022-10-26T03:38:25.087Z,12.30
2022-10-26T03:40:52.542Z,12.30
2022-10-26T03:43:19.449Z,12.30
2022-10-26T03:45:46.553Z,12.40
2022-10-26T03:48:14.455Z,12.40
2022-10-26T03:50:41.616Z,12.30
2022-10-26T03:53:08.685Z,12.40
2022-10-26T03:55:35.889Z,12.30
2022-10-26T03:58:02.808Z,12.30
2022-10-26T04:00:29.808Z,12.30
2022-10-26T04:03:00.422Z,12.30
2022-10-26T04:05:29.381Z,12.20
2022-10-26T04:07:59.656Z,12.30
2022-10-26T04:10:28.081Z,12.20
2022-10-26T04:12:56.015Z,12.30
2022-10-26T04:15:23.641Z,12.30
2022-10-26T04:18:00.568Z,12.30
2022-10-26T04:20:30.363Z,12.30
2022-10-26T04:23:02.213Z,12.20
2022-10-26T04:25:32.965Z,12.30
2022-10-26T04:28:03.151Z,12.30
2022-10-26T04:30:30.545Z,12.30
2022-10-26T04:32:57.444Z,12.30
2022-10-26T04:35:24.605Z,12.40
2022-10-26T04:37:51.672Z,12.40
2022-10-26T04:40:18.822Z,12.30
2022-10-26T04:42:47.986Z,12.40
2022-10-26T04:45:16.460Z,12.30
2022-10-26T04:47:44.238Z,12.30
2022-10-26T04:50:13.799Z,12.30
2022-10-26T04:52:41.236Z,12.40
2022-10-26T04:55:08.693Z,12.40
2022-10-26T04:57:36.020Z,12.30
2022-10-26T05:00:05.261Z,12.30
2022-10-26T05:02:32.289Z,12.30
2022-10-26T05:04:59.405Z,12.40
2022-10-26T05:07:26.349Z,12.30
2022-10-26T05:09:53.245Z,12.40
2022-10-26T05:12:20.343Z,12.40
2022-10-26T05:14:47.260Z,12.30
2022-10-26T05:17:14.235Z,12.30
2022-10-26T05:19:41.279Z,12.30
2022-10-26T05:22:08.442Z,12.20
2022-10-26T05:24:35.396Z,12.20
2022-10-26T05:27:02.312Z,12.20
2022-10-26T05:29:29.229Z,12.10
2022-10-26T05:31:56.228Z,12.20
2022-10-26T05:34:23.191Z,12.20
2022-10-26T05:36:53.205Z,12.20
2022-10-26T05:39:21.332Z,12.20
2022-10-26T05:41:48.248Z,12.20
2022-10-26T05:44:15.163Z,12.30
2022-10-26T05:46:43.219Z,12.30
2022-10-26T05:49:10.233Z,12.30
2022-10-26T05:51:37.192Z,12.30
2022-10-26T05:54:04.460Z,12.30
2022-10-26T05:56:40.239Z,12.30
2022-10-26T05:59:16.109Z,12.40
2022-10-26T06:02:13.813Z,12.30
2022-10-26T06:04:48.726Z,12.40
2022-10-26T06:07:21.593Z,12.40
2022-10-26T06:09:49.665Z,12.40
2022-10-26T06:12:19.563Z,12.40
2022-10-26T06:14:47.480Z,12.40
2022-10-26T06:17:44.469Z,12.50
2022-10-26T06:20:50.617Z,12.50
2022-10-26T06:23:41.270Z,12.50
2022-10-26T06:26:32.713Z,12.50
2022-10-26T06:29:22.945Z,12.50
2022-10-26T06:31:50.097Z,12.50
2022-10-26T06:34:27.379Z,12.60
2022-10-26T06:36:58.226Z,12.60
2022-10-26T06:39:29.644Z,12.70
2022-10-26T06:41:58.484Z,12.80
2022-10-26T06:44:26.028Z,12.80
2022-10-26T06:47:19.831Z,12.80
2022-10-26T06:50:20.360Z,12.80
2022-10-26T06:53:03.611Z,12.80
2022-10-26T06:55:42.196Z,12.90
2022-10-26T06:58:20.072Z,12.90
2022-10-26T07:00:51.032Z,12.90
2022-10-26T07:03:18.108Z,12.90
2022-10-26T07:05:46.186Z,13.00
2022-10-26T07:08:13.454Z,13.00
2022-10-26T07:10:42.170Z,13.10
2022-10-26T07:13:10.964Z,13.00
2022-10-26T07:15:39.748Z,13.10
2022-10-26T07:18:08.570Z,13.20
2022-10-26T07:20:41.206Z,13.30
2022-10-26T07:23:12.654Z,13.40
2022-10-26T07:25:40.516Z,13.60
2022-10-26T07:28:10.541Z,13.70
2022-10-26T07:30:39.963Z,13.70
2022-10-26T07:33:13.464Z,13.70
2022-10-26T07:35:41.624Z,13.70
2022-10-26T07:38:13.508Z,13.70
2022-10-26T07:40:40.418Z,13.80
2022-10-26T07:43:07.365Z,13.80
2022-10-26T07:45:34.316Z,13.80
2022-10-26T07:48:01.260Z,13.90
2022-10-26T07:50:28.697Z,13.90
2022-10-26T07:52:55.720Z,13.90
2022-10-26T07:55:22.628Z,13.90
2022-10-26T07:57:52.614Z,13.90
2022-10-26T08:00:22.403Z,14.00
2022-10-26T08:02:49.583Z,14.00
2022-10-26T08:05:16.826Z,13.90
2022-10-26T08:07:47.788Z,14.00
2022-10-26T08:10:16.018Z,14.10
2022-10-26T08:12:44.259Z,14.10
2022-10-26T08:15:11.747Z,14.00
2022-10-26T08:17:38.772Z,14.00
2022-10-26T08:20:06.490Z,14.10
2022-10-26T08:22:33.412Z,14.10
2022-10-26T08:25:00.315Z,14.10
2022-10-26T08:27:27.327Z,14.10
2022-10-26T08:29:54.260Z,14.10
2022-10-26T08:32:21.207Z,14.20
2022-10-26T08:34:48.169Z,14.20
2022-10-26T08:37:15.118Z,14.30
2022-10-26T08:39:42.027Z,14.40
2022-10-26T08:42:26.197Z,14.50
2022-10-26T08:45:01.312Z,14.60
2022-10-26T08:47:43.807Z,14.40
2022-10-26T08:50:40.547Z,14.50
2022-10-26T08:53:51.730Z,14.50
2022-10-26T08:56:25.360Z,14.40
2022-10-26T08:58:58.938Z,14.40
2022-10-26T09:01:26.021Z,14.40
2022-10-26T09:03:53.265Z,14.40
2022-10-26T09:06:42.004Z,14.50
2022-10-26T09:09:17.580Z,14.60
2022-10-26T09:12:07.913Z,14.80
2022-10-26T09:14:51.769Z,14.80
2022-10-26T09:17:39.749Z,14.90
2022-10-26T09:20:35.767Z,14.90
2022-10-26T09:23:37.336Z,14.80
2022-10-26T09:26:13.981Z,14.80
2022-10-26T09:28:44.785Z,14.90
2022-10-26T09:31:17.786Z,15.00
2022-10-26T09:33:44.944Z,15.20
2022-10-26T09:36:20.827Z,15.10
2022-10-26T09:39:04.202Z,15.00
2022-10-26T09:41:46.337Z,15.10
2022-10-26T09:44:34.698Z,15.10
2022-10-26T09:47:19.754Z,15.10
2022-10-26T09:49:58.887Z,15.10
2022-10-26T09:52:25.843Z,15.20
2022-10-26T09:54:52.776Z,15.30
2022-10-26T09:57:21.209Z,15.20
2022-10-26T09:59:50.621Z,15.20
2022-10-26T10:02:40.443Z,15.10
2022-10-26T10:05:51.342Z,15.30
2022-10-26T10:08:24.350Z,15.30
2022-10-26T10:11:00.052Z,15.40
2022-10-26T10:13:31.636Z,15.40
2022-10-26T10:16:20.050Z,15.50
2022-10-26T10:18:59.352Z,15.60
2022-10-26T10:21:45.452Z,15.60
2022-10-26T10:24:29.642Z,15.40
2022-10-26T10:27:05.518Z,15.30
2022-10-26T10:29:40.481Z,15.20
2022-10-26T10:32:35.829Z,15.30
2022-10-26T10:35:29.865Z,15.20
2022-10-26T10:37:57.940Z,15.20
2022-10-26T10:40:31.481Z,15.20
2022-10-26T10:43:13.335Z,15.30
2022-10-26T10:45:46.220Z,15.30
2022-10-26T10:48:13.048Z,15.30
2022-10-26T10:50:51.708Z,15.30
2022-10-26T10:53:31.849Z,15.30
2022-10-26T10:56:48.914Z,15.20
2022-10-26T11:00:01.372Z,15.10
2022-10-26T11:03:16.808Z,15.10
2022-10-26T11:06:11.242Z,15.20
2022-10-26T11:08:57.256Z,15.20
2022-10-26T11:11:45.483Z,15.30
2022-10-26T11:14:30.692Z,15.20
2022-10-26T11:17:19.734Z,15.20
2022-10-26T11:20:14.903Z,15.20
2022-10-26T11:23:11.140Z,15.00
2022-10-26T11:26:15.105Z,14.90
2022-10-26T11:28:58.229Z,14.90
2022-10-26T11:31:39.944Z,15.10
2022-10-26T11:34:50.999Z,15.00
2022-10-26T11:37:32.696Z,15.10
2022-10-26T11:40:27.466Z,15.10
2022-10-26T11:43:23.093Z,15.20
2022-10-26T11:46:33.134Z,15.20
2022-10-26T11:49:27.006Z,15.20
2022-10-26T11:52:08.910Z,15.30
2022-10-26T11:54:52.440Z,15.20
2022-10-26T11:57:22.073Z,15.20
2022-10-26T12:00:02.186Z,15.30
2022-10-26T12:02:29.306Z,15.40
2022-10-26T12:05:16.628Z,15.50
2022-10-26T12:08:08.592Z,15.30
2022-10-26T12:10:41.914Z,15.30
2022-10-26T12:13:22.458Z,15.40
2022-10-26T12:16:03.910Z,15.40
2022-10-26T12:19:04.246Z,15.40
2022-10-26T12:21:33.303Z,15.40
2022-10-26T12:24:22.601Z,15.40
2022-10-26T12:27:01.880Z,15.40
2022-10-26T12:29:30.429Z,15.50
2022-10-26T12:31:58.202Z,15.40
2022-10-26T12:34:31.118Z,15.40
2022-10-26T12:37:24.058Z,15.50
2022-10-26T12:39:51.512Z,15.50
2022-10-26T12:42:18.348Z,15.50
2022-10-26T12:44:48.327Z,15.60
2022-10-26T12:47:30.764Z,15.60
2022-10-26T12:50:06.685Z,15.70
2022-10-26T12:52:48.858Z,15.80
2022-10-26T12:55:40.476Z,15.80
2022-10-26T12:58:27.604Z,15.90
2022-10-26T13:01:00.244Z,15.80
2022-10-26T13:04:04.015Z,15.80
2022-10-26T13:07:19.449Z,15.80
2022-10-26T13:10:17.530Z,15.80
2022-10-26T13:13:02.848Z,15.80
2022-10-26T13:15:38.924Z,15.80
2022-10-26T13:18:18.873Z,15.70
2022-10-26T13:21:14.001Z,15.70
2022-10-26T13:23:48.299Z,15.70
2022-10-26T13:26:19.164Z,15.60
2022-10-26T13:29:04.486Z,15.50
2022-10-26T13:31:31.511Z,15.50
2022-10-26T13:34:04.184Z,15.40
2022-10-26T13:36:47.294Z,15.50
2022-10-26T13:39:21.853Z,15.50
2022-10-26T13:41:52.662Z,15.40
2022-10-26T13:44:44.545Z,15.50
2022-10-26T13:47:27.116Z,15.40
2022-10-26T13:50:03.229Z,15.50
2022-10-26T13:52:42.503Z,15.60
2022-10-26T13:55:39.777Z,15.60
2022-10-26T13:58:36.364Z,15.70
2022-10-26T14:01:16.970Z,15.80
2022-10-26T14:03:45.016Z,15.90
2022-10-26T14:06:40.265Z,15.90
2022-10-26T14:09:18.810Z,15.90
2022-10-26T14:11:58.799Z,15.90
2022-10-26T14:14:38.643Z,15.80
2022-10-26T14:17:06.186Z,15.80
2022-10-26T14:19:40.110Z,15.80
2022-10-26T14:22:11.587Z,15.70
2022-10-26T14:24:48.247Z,15.70
2022-10-26T14:27:25.438Z,15.70
2022-10-26T14:30:17.145Z,15.70
2022-10-26T14:32:41.884Z,15.50
2022-10-26T14:35:16.478Z,15.50
2022-10-26T14:38:01.192Z,15.40
2022-10-26T14:40:35.208Z,15.30
2022-10-26T14:43:05.478Z,15.20
2022-10-26T14:45:54.430Z,15.20
2022-10-26T14:48:33.168Z,15.10
2022-10-26T14:51:17.882Z,15.10
2022-10-26T14:53:54.730Z,15.10
2022-10-26T14:56:50.308Z,15.10
2022-10-26T14:59:28.119Z,15.10
2022-10-26T15:02:22.121Z,15.00
2022-10-26T15:05:17.535Z,15.00
2022-10-26T15:07:48.654Z,14.90
2022-10-26T15:10:38.065Z,14.80
2022-10-26T15:13:33.677Z,14.80
2022-10-26T15:16:23.434Z,14.70
2022-10-26T15:19:23.773Z,14.70
2022-10-26T15:21:54.477Z,14.70
2022-10-26T15:24:37.711Z,14.70
2022-10-26T15:27:17.182Z,14.70
2022-10-26T15:29:50.791Z,14.70
2022-10-26T15:32:33.393Z,14.50
2022-10-26T15:35:23.588Z,14.50
2022-10-26T15:37:53.343Z,14.40
2022-10-26T15:40:20.538Z,14.30
2022-10-26T15:42:53.494Z,14.30
2022-10-26T15:45:28.800Z,14.20
2022-10-26T15:47:58.881Z,14.10
2022-10-26T15:50:28.820Z,14.10
2022-10-26T15:53:17.610Z,14.10
2022-10-26T15:55:44.747Z,14.10
2022-10-26T15:58:12.176Z,14.00
2022-10-26T16:00:39.133Z,13.90
2022-10-26T16:03:06.090Z,13.90
2022-10-26T16:05:33.373Z,13.90
2022-10-26T16:08:00.452Z,13.90
2022-10-26T16:10:27.570Z,13.80
2022-10-26T16:12:55.078Z,13.80
2022-10-26T16:27:45.765Z,13.70
2022-10-26T16:30:14.331Z,14.00
2022-10-26T16:32:42.286Z,13.60
2022-10-26T16:35:11.610Z,13.40
2022-10-26T16:37:39.471Z,13.20
2022-10-26T16:40:08.708Z,13.10
2022-10-26T16:42:35.846Z,13.00
2022-10-26T16:45:03.405Z,13.00
2022-10-26T16:47:37.682Z,12.90
2022-10-26T16:50:05.428Z,12.90
2022-10-26T16:52:35.704Z,12.80
2022-10-26T16:55:04.196Z,12.70
2022-10-26T16:57:31.457Z,12.60
2022-10-26T16:59:58.512Z,12.60
2022-10-26T17:02:25.678Z,12.60
2022-10-26T17:04:52.662Z,12.60
2022-10-26T17:07:22.524Z,12.50
2022-10-26T17:09:49.647Z,12.50
2022-10-26T17:12:16.972Z,12.40
2022-10-26T17:14:44.076Z,12.40
2022-10-26T17:17:11.112Z,12.30
2022-10-26T17:19:38.213Z,12.20
2022-10-26T17:22:07.925Z,12.10
2022-10-26T17:24:36.275Z,12.00
2022-10-26T17:27:06.012Z,12.00
2022-10-26T17:29:32.962Z,11.90
2022-10-26T17:31:59.982Z,11.90
2022-10-26T17:34:26.981Z,11.90
2022-10-26T17:36:53.906Z,11.90
2022-10-26T17:39:21.149Z,11.90
2022-10-26T17:41:48.108Z,11.90
2022-10-26T17:44:15.558Z,11.80
2022-10-26T17:46:42.534Z,11.90
2022-10-26T17:49:09.532Z,11.90
2022-10-26T17:51:36.533Z,11.80
2022-10-26T17:54:03.714Z,11.90
2022-10-26T17:56:33.538Z,11.90
2022-10-26T17:59:04.565Z,11.90
2022-10-26T18:01:32.544Z,11.90
2022-10-26T18:04:00.402Z,11.90
2022-10-26T18:06:27.828Z,11.80
2022-10-26T18:08:57.890Z,11.70
2022-10-26T18:11:27.144Z,11.60
2022-10-26T18:13:56.087Z,11.50
2022-10-26T18:16:26.396Z,11.50
2022-10-26T18:19:00.650Z,11.50
2022-10-26T18:21:33.890Z,11.40
2022-10-26T18:24:00.966Z,11.30
2022-10-26T18:26:30.691Z,11.20
2022-10-26T18:28:59.674Z,11.10
2022-10-26T18:31:28.898Z,11.10
2022-10-26T18:33:58.672Z,11.10
2022-10-26T18:36:27.493Z,11.00
2022-10-26T18:38:54.805Z,11.00
2022-10-26T18:41:24.400Z,11.00
2022-10-26T18:43:55.111Z,11.00
2022-10-26T18:46:27.531Z,11.00
2022-10-26T18:48:56.217Z,10.90
2022-10-26T18:51:28.904Z,10.90
2022-10-26T18:53:57.833Z,10.90
2022-10-26T18:56:25.639Z,10.90
2022-10-26T18:58:58.453Z,10.90
2022-10-26T19:01:32.207Z,10.90
2022-10-26T19:04:04.727Z,10.90
2022-10-26T19:06:43.135Z,10.80
2022-10-26T19:09:10.292Z,10.90
2022-10-26T19:11:38.099Z,10.80
2022-10-26T19:14:05.432Z,10.80
2022-10-26T19:16:45.530Z,10.90
2022-10-26T19:19:16.514Z,11.00
2022-10-26T19:21:47.330Z,11.10
2022-10-26T19:24:29.226Z,11.20
2022-10-26T19:26:59.190Z,11.40
2022-10-26T19:29:27.568Z,11.50
2022-10-26T19:31:54.857Z,11.50
2022-10-26T19:34:22.348Z,11.60
2022-10-26T19:36:49.388Z,11.60
2022-10-26T19:39:19.077Z,11.60
2022-10-26T19:41:46.882Z,11.50
2022-10-26T19:44:15.219Z,11.40
2022-10-26T19:46:43.794Z,11.30
2022-10-26T19:49:12.959Z,11.20
2022-10-26T19:51:40.293Z,11.10
2022-10-26T19:54:07.715Z,11.10
2022-10-26T19:56:37.127Z,11.10
2022-10-26T19:59:05.354Z,10.90
2022-10-26T20:01:32.705Z,10.80
2022-10-26T20:04:02.427Z,10.70
2022-10-26T20:06:30.651Z,10.70
2022-10-26T20:08:57.958Z,10.60
2022-10-26T20:11:24.912Z,10.60
2022-10-26T20:13:51.838Z,10.60
2022-10-26T20:16:18.838Z,10.50
2022-10-26T20:18:48.133Z,10.50
2022-10-26T20:21:17.535Z,10.50
2022-10-26T20:23:45.457Z,10.60
2022-10-26T20:26:19.733Z,10.60
2022-10-26T20:28:53.500Z,10.60
2022-10-26T20:31:20.569Z,10.60
2022-10-26T20:33:55.286Z,10.60
2022-10-26T20:36:22.777Z,10.60
2022-10-26T20:38:50.153Z,10.50
2022-10-26T20:41:17.760Z,10.60
2022-10-26T20:43:44.998Z,10.50
2022-10-26T20:46:27.744Z,10.60
2022-10-26T20:48:55.504Z,10.60
2022-10-26T20:52:26.773Z,10.60
2022-10-26T20:55:12.278Z,10.70
2022-10-26T20:57:44.997Z,10.60
2022-10-26T21:00:12.642Z,10.70
2022-10-26T21:02:39.654Z,10.60
2022-10-26T21:05:07.054Z,10.60
2022-10-26T21:07:33.990Z,10.60
2022-10-26T21:10:00.918Z,10.60
2022-10-26T21:12:27.974Z,10.50
2022-10-26T21:14:54.941Z,10.50
2022-10-26T21:17:21.898Z,10.50
2022-10-26T21:19:48.907Z,10.40
2022-10-26T21:22:15.887Z,10.40
2022-10-26T21:24:42.893Z,10.30
2022-10-26T21:27:09.852Z,10.20
2022-10-26T21:29:36.836Z,10.30
2022-10-26T21:32:04.193Z,10.30
2022-10-26T21:34:31.087Z,10.20
2022-10-26T21:36:58.044Z,10.30
2022-10-26T21:39:24.987Z,10.20
2022-10-26T21:41:51.890Z,10.20
2022-10-26T21:44:40.501Z,10.20
2022-10-26T21:47:05.848Z,10.10
2022-10-26T21:49:32.802Z,10.10
2022-10-26T21:51:59.722Z,10.10
2022-10-26T21:54:26.614Z,10.20
2022-10-26T21:56:53.542Z,10.20
2022-10-26T21:59:20.566Z,10.20
2022-10-26T22:05:57.204Z,10.30
2022-10-26T22:08:24.108Z,10.20
2022-10-26T22:10:51.076Z,10.30
2022-10-26T22:13:17.933Z,10.30
2022-10-26T22:15:44.922Z,10.30
2022-10-26T22:18:11.766Z,10.40
2022-10-26T22:20:38.633Z,10.40
2022-10-26T22:25:37.449Z,10.40
2022-10-26T22:28:04.491Z,10.40
2022-10-26T22:30:31.306Z,10.50
2022-10-26T22:32:58.146Z,10.50
2022-10-26T22:35:29.308Z,10.60
2022-10-26T22:37:57.436Z,10.60
2022-10-26T22:40:24.320Z,10.70
2022-10-26T22:42:52.332Z,10.80
2022-10-26T22:45:19.422Z,10.80
2022-10-26T22:47:46.284Z,10.90
2022-10-26T22:50:13.143Z,10.90
2022-10-26T22:52:40.176Z,11.00
2022-10-26T22:55:07.864Z,11.10
2022-10-26T22:57:34.676Z,11.10
2022-10-26T23:00:01.593Z,11.10
2022-10-26T23:02:28.444Z,11.10
2022-10-26T23:04:55.353Z,11.20
2022-10-26T23:07:25.988Z,11.30
2022-10-26T23:09:52.870Z,11.30
2022-10-26T23:12:19.728Z,11.30
2022-10-26T23:14:46.549Z,11.40
2022-10-26T23:17:13.703Z,11.40
2022-10-26T23:19:40.515Z,11.30
2022-10-26T23:22:07.414Z,11.40
2022-10-26T23:24:34.356Z,11.40
2022-10-26T23:27:01.539Z,11.40
2022-10-26T23:29:28.450Z,11.40
2022-10-26T23:31:55.462Z,11.50
2022-10-26T23:34:22.395Z,11.40
2022-10-26T23:36:50.551Z,11.30
2022-10-26T23:39:17.644Z,11.30
2022-10-26T23:41:44.588Z,11.30
2022-10-26T23:44:11.492Z,11.20
2022-10-26T23:46:38.409Z,11.20
2022-10-26T23:49:05.717Z,11.20
2022-10-26T23:51:32.672Z,11.20
2022-10-26T23:53:59.565Z,11.20
2022-10-26T23:56:26.502Z,11.20
2022-10-26T23:58:53.624Z,11.20
